Time;durP1;ratioP1;P1;durP2;ratioP2;P2;SDS_P1;SDS_P2;PMS_P1;PMS_P2;Temp;Humidity;BMP_temperature;BMP_pressure;BME280_temperature;BME280_humidity;BME280_pressure;Samples;Min_cycle;Max_cycle;Signal;HPM_P1;HPM_P2
2022/01/25 00:09:49;;;;;;;12.68;7.30;;;;;;;1.41;67.03;102969.09;5031287;28;20075;-89
2022/01/25 00:24:23;;;;;;;12.73;7.28;;;;;;;1.49;67.84;103018.97;5063424;28;20086;-89
2022/01/25 00:32:17;;;;;;;13.10;7.40;;;;;;;1.41;68.20;102997.41;5077046;28;20063;-89
2022/01/25 00:34:55;;;;;;;11.48;6.85;;;;;;;1.47;67.51;102998.19;5057137;28;20029;-90
2022/01/25 00:37:32;;;;;;;11.93;6.97;;;;;;;1.35;67.55;102965.72;5057617;28;20476;-89
2022/01/25 00:40:00;;;;;;;13.87;7.30;;;;;;;1.49;67.38;103006.09;5054410;28;20037;-87
2022/01/25 00:42:40;;;;;;;12.35;7.07;;;;;;;1.32;67.78;102978.25;5063121;28;20039;-90
2022/01/25 00:45:15;;;;;;;14.25;7.90;;;;;;;1.05;67.88;102945.69;5072774;28;20040;-90
2022/01/25 00:48:06;;;;;;;13.63;7.32;;;;;;;1.46;67.93;103024.69;5081217;28;20466;-89
2022/01/25 00:50:41;;;;;;;13.32;7.53;;;;;;;1.06;68.13;102965.56;5072157;28;20032;-90
2022/01/25 00:55:59;;;;;;;12.60;7.00;;;;;;;1.38;67.76;102971.28;5072209;28;20094;-90
2022/01/25 00:58:30;;;;;;;14.70;7.50;;;;;;;1.56;68.01;103001.00;5082604;28;20053;-91
2022/01/25 01:00:57;;;;;;;11.77;7.00;;;;;;;1.39;68.12;102996.28;5084208;28;20029;-90
2022/01/25 01:03:22;;;;;;;13.50;6.95;;;;;;;1.08;67.92;102948.66;5076973;28;20039;-91
2022/01/25 01:06:26;;;;;;;12.63;6.90;;;;;;;1.63;67.42;103003.63;5066127;28;20029;-92
2022/01/25 01:09:36;;;;;;;13.40;7.07;;;;;;;1.46;67.59;102995.41;5037926;28;20074;-90
2022/01/25 01:12:11;;;;;;;13.25;7.25;;;;;;;1.00;68.12;102934.81;5081401;28;20036;-92
2022/01/25 01:29:24;;;;;;;13.30;7.80;;;;;;;1.07;68.27;102948.47;5093869;28;20047;-89
2022/01/25 01:32:25;;;;;;;15.40;8.23;;;;;;;1.22;67.95;102956.47;5061418;28;20481;-89
2022/01/25 01:43:30;;;;;;;14.05;7.50;;;;;;;1.21;68.03;102941.75;5034745;28;20094;-89
2022/01/25 01:48:51;;;;;;;14.13;7.32;;;;;;;1.34;67.79;102987.06;5040552;28;20519;-88
2022/01/25 01:51:25;;;;;;;15.98;8.00;;;;;;;1.43;67.70;102975.34;5022282;28;20022;-89
2022/01/25 01:54:10;;;;;;;12.90;7.45;;;;;;;1.40;67.62;102960.44;5019308;28;20036;-90
2022/01/25 01:56:51;;;;;;;13.50;7.88;;;;;;;1.04;68.03;102923.28;5003935;28;20036;-90
2022/01/25 01:59:29;;;;;;;12.90;7.30;;;;;;;1.18;67.25;102917.28;5015631;28;20022;-90
2022/01/25 02:01:57;;;;;;;13.63;7.65;;;;;;;1.16;67.52;102927.38;4998325;28;20026;-89
2022/01/25 02:04:25;;;;;;;14.20;7.55;;;;;;;1.19;68.08;102960.31;5017065;28;20480;-87
2022/01/25 02:06:50;;;;;;;13.45;7.68;;;;;;;1.25;67.71;102960.16;5001934;28;20049;-86
2022/01/25 02:09:22;;;;;;;14.10;7.35;;;;;;;1.28;67.53;102929.66;4998599;28;20030;-88
2022/01/25 02:11:49;;;;;;;13.88;7.75;;;;;;;1.30;67.12;102903.38;5017114;28;20037;-88
2022/01/25 02:14:22;;;;;;;13.85;7.57;;;;;;;0.98;67.77;102889.97;5016185;28;20034;-89
2022/01/25 02:22:32;;;;;;;15.32;8.05;;;;;;;1.05;67.80;102917.38;5033349;28;20098;-90
2022/01/25 02:25:07;;;;;;;13.73;7.72;;;;;;;1.26;68.38;102946.56;5019811;28;20040;-89
2022/01/25 02:27:37;;;;;;;14.05;7.25;;;;;;;1.11;67.92;102923.31;5016508;28;20083;-89
2022/01/25 02:30:19;;;;;;;15.82;8.13;;;;;;;0.75;68.12;102857.84;5033353;28;20057;-90
2022/01/25 02:33:05;;;;;;;13.88;7.20;;;;;;;1.46;67.51;102939.72;5016701;28;20099;-90
2022/01/25 02:35:45;;;;;;;14.77;8.18;;;;;;;1.38;67.66;102940.41;5033151;28;20037;-90
2022/01/25 02:38:13;;;;;;;14.30;7.82;;;;;;;0.98;68.19;102912.22;5018715;28;20030;-90
2022/01/25 02:40:40;;;;;;;14.07;7.60;;;;;;;0.92;67.66;102862.56;5058926;28;20075;-88
2022/01/25 02:43:08;;;;;;;14.98;7.78;;;;;;;1.45;67.33;102934.34;5075991;28;20048;-88
2022/01/25 02:45:36;;;;;;;15.80;7.90;;;;;;;1.20;67.69;102908.09;5073510;28;20089;-88
2022/01/25 02:50:51;;;;;;;14.02;7.50;;;;;;;1.21;68.20;102923.75;5072947;28;20097;-91
2022/01/25 02:53:22;;;;;;;14.48;7.88;;;;;;;1.28;67.67;102935.72;5088613;28;20028;-90
2022/01/25 02:55:56;;;;;;;13.98;8.25;;;;;;;1.34;67.35;102927.88;5092650;28;20035;-90
2022/01/25 02:58:25;;;;;;;14.00;7.57;;;;;;;0.87;67.79;102869.69;5085318;28;20090;-90
2022/01/25 03:00:51;;;;;;;13.77;8.05;;;;;;;1.10;67.65;102881.94;5060114;28;20084;-88
2022/01/25 03:03:17;;;;;;;13.95;7.88;;;;;;;0.71;68.44;102851.38;5057262;28;20524;-87
2022/01/25 03:05:43;;;;;;;16.30;7.80;;;;;;;0.86;67.98;102846.34;5071735;28;20749;-87
2022/01/25 03:08:13;;;;;;;13.55;7.35;;;;;;;0.78;67.78;102854.03;5071937;28;20071;-88
2022/01/25 03:10:42;;;;;;;13.38;7.40;;;;;;;1.14;67.67;102891.88;5055340;28;20039;-89
2022/01/25 03:13:16;;;;;;;13.38;7.85;;;;;;;1.14;67.58;102877.41;5084424;28;20032;-90
2022/01/25 03:23:48;;;;;;;14.15;6.45;;;;;;;1.25;68.24;102906.09;5072091;28;20056;-89
2022/01/25 03:26:24;;;;;;;12.95;7.28;;;;;;;1.33;67.59;102896.03;5059085;28;20031;-91
2022/01/25 03:28:51;;;;;;;14.30;7.97;;;;;;;1.38;67.97;102905.28;5072950;28;20434;-89
2022/01/25 03:31:27;;;;;;;12.85;7.70;;;;;;;1.12;67.61;102862.47;5086761;28;20048;-89
2022/01/25 03:34:00;;;;;;;10.23;5.40;;;;;;;1.21;67.64;102864.56;5056101;28;20071;-88
2022/01/25 03:36:48;;;;;;;12.65;6.72;;;;;;;1.33;67.44;102901.19;5056037;28;20094;-88
2022/01/25 03:39:14;;;;;;;13.50;7.15;;;;;;;1.03;67.45;102851.94;5056240;28;20046;-88
2022/01/25 03:41:41;;;;;;;12.57;7.15;;;;;;;1.09;67.56;102836.38;5055016;28;20115;-89
2022/01/25 03:44:16;;;;;;;12.82;7.20;;;;;;;1.15;67.01;102840.63;5054538;28;20106;-88
2022/01/25 03:49:52;;;;;;;13.07;7.05;;;;;;;1.32;68.03;102903.59;5072357;28;20031;-90
2022/01/25 03:52:28;;;;;;;14.30;7.70;;;;;;;1.61;66.40;102902.06;5057046;28;20489;-89
2022/01/25 03:54:55;;;;;;;13.50;7.43;;;;;;;0.95;67.62;102843.28;5062214;28;20034;-89
2022/01/25 03:57:21;;;;;;;12.50;7.07;;;;;;;1.28;67.14;102880.75;5064739;28;20282;-89
2022/01/25 03:59:48;;;;;;;13.35;6.80;;;;;;;1.01;67.49;102850.84;5061543;28;20036;-91
2022/01/25 04:02:22;;;;;;;13.90;7.20;;;;;;;0.91;67.34;102810.19;5076234;28;20158;-90
2022/01/25 04:05:09;;;;;;;12.73;7.03;;;;;;;1.12;68.01;102891.72;5077809;28;20118;-88
2022/01/25 04:07:45;;;;;;;12.63;6.85;;;;;;;0.87;67.75;102832.75;5078813;28;20502;-90
2022/01/25 04:10:17;;;;;;;12.40;6.82;;;;;;;1.08;67.56;102861.19;5076964;28;20080;-90
2022/01/25 04:13:01;;;;;;;12.60;7.07;;;;;;;1.20;67.55;102882.38;5091086;28;20129;-91
2022/01/25 04:15:45;;;;;;;13.45;6.80;;;;;;;0.87;67.87;102822.44;5074735;28;20111;-90
2022/01/25 04:18:32;;;;;;;11.13;6.65;;;;;;;1.38;67.37;102889.81;5066853;28;20181;-90
2022/01/25 04:27:28;;;;;;;13.77;7.28;;;;;;;1.37;67.82;102887.06;5080176;28;20035;-89
2022/01/25 04:29:56;;;;;;;12.23;6.65;;;;;;;1.22;66.67;102850.94;5073103;28;20031;-90
2022/01/25 04:32:48;;;;;;;12.90;6.57;;;;;;;0.96;67.71;102855.41;5072783;28;20035;-91
2022/01/25 04:35:28;;;;;;;12.20;6.60;;;;;;;0.98;68.08;102851.38;5075136;28;20043;-91
2022/01/25 04:49:48;;;;;;;11.13;6.78;;;;;;;1.07;67.67;102872.19;5058771;28;20063;-93
2022/01/25 04:52:38;;;;;;;11.73;6.78;;;;;;;0.98;67.56;102825.66;5069328;28;20024;-92
2022/01/25 04:55:19;;;;;;;11.07;6.57;;;;;;;1.27;66.98;102851.53;5075256;28;20050;-89
2022/01/25 04:57:55;;;;;;;9.95;6.22;;;;;;;1.01;67.22;102818.31;5064306;28;20024;-89
2022/01/25 05:00:43;;;;;;;10.88;6.30;;;;;;;1.09;68.53;102888.75;5055807;28;20035;-90
2022/01/25 05:03:15;;;;;;;12.15;6.75;;;;;;;0.97;68.35;102887.19;5058350;28;20032;-90
2022/01/25 05:06:24;;;;;;;11.65;7.15;;;;;;;1.09;68.13;102881.03;5058586;28;20032;-90
2022/01/25 05:09:13;;;;;;;11.68;6.63;;;;;;;1.09;68.64;102888.75;5075509;28;20081;-90
2022/01/25 05:11:46;;;;;;;11.82;6.07;;;;;;;1.01;68.22;102861.13;5096283;28;20047;-91
2022/01/25 05:14:19;;;;;;;11.15;6.55;;;;;;;0.88;68.33;102850.94;5076776;28;20045;-91
2022/01/25 05:17:18;;;;;;;13.55;6.40;;;;;;;1.21;68.03;102886.81;5059658;28;20022;-90
2022/01/25 05:23:09;;;;;;;10.38;6.25;;;;;;;1.51;66.75;102878.47;5086774;28;20075;-89
2022/01/25 05:26:09;;;;;;;10.80;6.25;;;;;;;1.40;67.51;102885.78;5079815;28;20040;-89
2022/01/25 05:28:46;;;;;;;11.20;6.60;;;;;;;1.09;67.87;102850.16;5059483;28;20038;-89
2022/01/25 05:32:00;;;;;;;11.75;6.57;;;;;;;1.12;67.76;102885.63;5077503;28;20038;-90
2022/01/25 05:37:48;;;;;;;13.35;7.07;;;;;;;1.01;68.32;102885.19;5087632;28;20082;-90
2022/01/25 05:40:17;;;;;;;11.00;6.55;;;;;;;0.54;68.69;102836.38;5065959;28;20076;-85
2022/01/25 05:42:50;;;;;;;11.93;6.85;;;;;;;1.05;68.08;102886.50;5074297;28;20056;-86
2022/01/25 05:45:36;;;;;;;12.90;7.25;;;;;;;0.79;67.87;102835.28;5058369;28;20582;-88
2022/01/25 05:48:02;;;;;;;11.98;6.82;;;;;;;0.89;67.78;102845.09;5073345;28;20036;-87
2022/01/25 05:50:27;;;;;;;11.27;6.32;;;;;;;0.68;68.26;102809.88;5083807;28;20028;-87
2022/01/25 05:52:53;;;;;;;12.35;6.47;;;;;;;1.11;68.30;102899.25;5092826;28;20059;-88
2022/01/25 05:55:20;;;;;;;10.77;6.43;;;;;;;0.65;66.93;102772.56;5074163;28;20058;-88
2022/01/25 05:57:46;;;;;;;12.45;6.63;;;;;;;0.84;67.50;102819.50;5092607;28;20036;-85
2022/01/25 06:00:12;;;;;;;10.82;6.47;;;;;;;0.60;67.58;102771.97;5073371;28;20127;-84
2022/01/25 06:02:40;;;;;;;13.30;7.32;;;;;;;0.56;68.11;102804.09;5061511;28;20131;-88
2022/01/25 06:05:06;;;;;;;12.23;7.65;;;;;;;0.56;67.81;102808.31;5091042;28;20047;-88
2022/01/25 06:07:32;;;;;;;;;;;;;;;1.18;67.64;102887.31;5079965;28;20063;-88
2022/01/25 06:09:58;;;;;;;12.05;6.85;;;;;;;0.46;67.90;102795.94;5086109;28;19912;-88
2022/01/25 06:12:27;;;;;;;13.10;6.78;;;;;;;1.00;67.90;102880.78;5075799;28;20035;-88
2022/01/25 06:15:04;;;;;;;11.55;6.55;;;;;;;0.68;68.23;102843.31;5092788;28;20067;-89
2022/01/25 06:17:30;;;;;;;10.95;6.93;;;;;;;0.76;68.11;102818.53;5072159;28;20036;-90
2022/01/25 06:19:55;;;;;;;13.88;6.93;;;;;;;0.48;68.06;102806.41;5038772;28;20051;-87
2022/01/25 06:22:41;;;;;;;12.63;7.07;;;;;;;1.14;68.01;102891.88;5072619;28;20029;-90
2022/01/25 06:25:31;;;;;;;13.20;7.22;;;;;;;1.12;67.49;102885.63;5089537;28;20028;-91
2022/01/25 06:28:20;;;;;;;12.57;6.65;;;;;;;1.10;67.91;102879.38;5057770;28;20032;-90
2022/01/25 06:31:15;;;;;;;11.23;6.72;;;;;;;1.22;67.28;102878.34;5065003;28;20032;-89
2022/01/25 06:33:43;;;;;;;11.60;6.65;;;;;;;0.98;67.83;102853.94;5077486;28;20031;-89
2022/01/25 06:36:09;;;;;;;11.95;7.20;;;;;;;0.62;68.49;102837.38;5070916;28;20029;-88
2022/01/25 06:38:35;;;;;;;;;;;;;;;0.88;68.51;102878.31;5076291;28;20052;-88
2022/01/25 06:41:10;;;;;;;13.05;6.97;;;;;;;1.13;67.48;102874.63;5071846;28;19977;-88
2022/01/25 06:43:37;;;;;;;13.15;7.60;;;;;;;0.36;67.98;102749.22;5090610;28;20188;-89
2022/01/25 06:46:03;;;;;;;13.18;7.22;;;;;;;0.44;68.58;102809.31;5055441;28;20032;-87
2022/01/25 06:48:30;;;;;;;11.95;7.18;;;;;;;0.44;68.37;102789.69;5050711;28;20037;-87
2022/01/25 06:50:56;;;;;;;11.88;6.95;;;;;;;1.01;68.58;102874.00;5068204;28;20025;-87
2022/01/25 06:53:22;;;;;;;14.32;7.18;;;;;;;0.80;67.43;102814.00;5070934;28;20035;-88
2022/01/25 06:55:47;;;;;;;12.07;7.18;;;;;;;0.53;68.00;102782.19;5071474;28;20020;-88
2022/01/25 06:58:13;;;;;;;12.18;6.55;;;;;;;0.42;67.97;102756.81;5072122;28;20036;-90
2022/01/25 07:00:40;;;;;;;13.20;7.18;;;;;;;0.47;67.54;102755.75;5071645;28;20032;-87
2022/01/25 07:03:07;;;;;;;12.85;6.90;;;;;;;0.88;67.25;102789.22;5071870;28;20024;-88
2022/01/25 07:05:35;;;;;;;13.80;7.35;;;;;;;0.76;67.41;102800.53;5055021;28;20029;-88
2022/01/25 07:08:02;;;;;;;13.68;7.05;;;;;;;1.01;68.42;102869.75;5054969;28;20024;-86
2022/01/25 07:10:28;;;;;;;12.15;7.13;;;;;;;0.92;67.99;102834.25;5066710;28;20085;-88
2022/01/25 07:13:24;;;;;;;11.70;7.32;;;;;;;1.06;68.38;102861.69;5055282;28;20032;-91
2022/01/25 07:16:41;;;;;;;12.38;7.07;;;;;;;1.12;67.48;102860.84;5072477;28;20119;-90
2022/01/25 07:22:48;;;;;;;13.02;7.18;;;;;;;1.12;68.02;102849.59;5073312;28;20419;-90
2022/01/25 07:25:18;;;;;;;11.68;7.15;;;;;;;1.08;67.53;102852.53;5071482;28;20028;-90
2022/01/25 07:27:50;;;;;;;12.88;7.22;;;;;;;0.89;68.40;102814.22;5055441;28;20110;-91
2022/01/25 07:30:28;;;;;;;12.63;7.05;;;;;;;0.58;68.65;102800.06;5055638;28;20031;-89
2022/01/25 07:33:07;;;;;;;13.88;7.72;;;;;;;0.89;68.30;102837.38;5061403;28;20487;-91
2022/01/25 07:35:44;;;;;;;13.93;7.70;;;;;;;0.87;68.36;102849.13;5076883;28;20029;-92
2022/01/25 07:38:10;;;;;;;12.75;7.18;;;;;;;0.92;67.44;102806.88;5055315;28;20021;-92
2022/01/25 07:40:44;;;;;;;11.23;7.13;;;;;;;0.96;68.01;102816.81;5055280;28;20085;-92
2022/01/25 07:43:11;;;;;;;12.63;7.45;;;;;;;0.97;68.43;102826.41;5055265;28;20641;-92
2022/01/25 07:45:51;;;;;;;13.85;7.60;;;;;;;0.76;68.29;102814.34;5055217;28;20037;-91
2022/01/25 07:51:38;;;;;;;14.70;7.65;;;;;;;0.89;67.95;102802.97;5072889;28;20054;-91
2022/01/25 07:54:24;;;;;;;13.05;7.47;;;;;;;0.86;68.58;102836.06;5054939;28;20551;-92
2022/01/25 07:56:55;;;;;;;11.90;7.35;;;;;;;0.89;68.69;102836.44;5055019;28;20036;-91
2022/01/25 07:59:43;;;;;;;12.63;7.43;;;;;;;1.09;67.60;102841.50;5070656;28;20480;-92
2022/01/25 08:02:16;;;;;;;12.57;7.30;;;;;;;0.68;68.41;102807.31;5071613;28;20036;-94
2022/01/25 08:04:59;;;;;;;14.63;8.45;;;;;;;0.93;68.67;102846.38;5055404;28;20539;-90
2022/01/25 08:08:13;;;;;;;13.98;7.63;;;;;;;1.25;67.17;102839.19;5059132;28;20028;-93
2022/01/25 08:10:39;;;;;;;12.85;7.05;;;;;;;0.72;67.55;102759.72;5082637;28;20066;-92
2022/01/25 08:13:06;;;;;;;13.85;8.23;;;;;;;0.78;67.80;102788.78;5074013;28;20115;-93
2022/01/25 08:15:36;;;;;;;13.82;8.02;;;;;;;0.85;68.49;102836.75;5065273;28;20058;-93
2022/01/25 08:18:02;;;;;;;13.60;8.00;;;;;;;0.59;68.62;102786.50;5066250;28;20037;-93
2022/01/25 08:20:28;;;;;;;14.20;7.80;;;;;;;0.46;68.87;102770.22;5040135;28;20034;-93
2022/01/25 08:22:55;;;;;;;14.00;7.65;;;;;;;0.72;67.93;102788.97;5055529;28;20029;-92
2022/01/25 08:25:22;;;;;;;19.75;10.35;;;;;;;0.72;68.52;102816.28;5058801;28;20028;-93
2022/01/25 08:28:33;;;;;;;18.50;10.77;;;;;;;0.97;68.40;102825.44;5066686;28;20123;-92
2022/01/25 08:31:23;;;;;;;21.88;11.77;;;;;;;0.92;68.70;102829.13;5072823;28;20154;-93
2022/01/25 08:34:47;;;;;;;19.77;10.23;;;;;;;0.85;68.35;102824.84;5080308;28;20032;-95
2022/01/25 08:37:14;;;;;;;19.35;10.60;;;;;;;0.70;68.96;102807.47;5072683;28;20455;-95
2022/01/25 08:39:57;;;;;;;20.98;11.10;;;;;;;0.86;68.75;102834.41;5066090;28;20539;-94
2022/01/25 08:45:44;;;;;;;19.42;10.48;;;;;;;0.90;68.29;102810.91;5072219;28;20119;-95
2022/01/25 08:48:20;;;;;;;20.20;10.75;;;;;;;0.59;68.40;102777.84;5055834;28;20059;-94
2022/01/25 08:51:01;;;;;;;18.55;10.48;;;;;;;0.84;68.50;102799.84;5082950;28;20032;-93
2022/01/25 08:53:43;;;;;;;18.05;9.77;;;;;;;0.92;68.08;102817.16;5058006;28;20116;-96
2022/01/25 08:56:08;;;;;;;19.92;10.48;;;;;;;0.74;68.17;102773.69;5081045;28;20027;-94
2022/01/25 08:58:35;;;;;;;20.95;10.80;;;;;;;0.84;68.26;102781.84;5071499;28;20032;-94
2022/01/25 09:01:06;;;;;;;18.05;10.23;;;;;;;0.69;68.31;102761.94;5087281;28;20050;-93
2022/01/25 09:03:56;;;;;;;18.60;10.20;;;;;;;0.99;67.97;102804.31;5072212;28;20123;-94
2022/01/25 09:06:39;;;;;;;19.25;10.35;;;;;;;0.53;69.03;102760.00;5054602;28;20036;-93
2022/01/25 09:15:49;;;;;;;19.90;10.23;;;;;;;0.72;68.74;102768.38;5072147;28;20055;-94
2022/01/25 09:18:49;;;;;;;18.83;10.50;;;;;;;0.76;68.72;102779.94;5054690;28;20483;-93
2022/01/25 09:21:17;;;;;;;22.02;10.65;;;;;;;0.89;68.55;102756.69;5079517;28;20029;-94
2022/01/25 09:23:51;;;;;;;19.00;10.20;;;;;;;0.86;68.53;102754.66;5083991;28;20077;-94
2022/01/25 09:33:00;;;;;;;18.50;10.07;;;;;;;0.83;68.45;102715.72;5081770;28;20054;-92
2022/01/25 09:35:26;;;;;;;16.38;9.50;;;;;;;0.77;69.05;102741.59;5070472;28;20091;-93
2022/01/25 09:38:01;;;;;;;18.10;9.85;;;;;;;1.02;68.07;102731.78;5061150;28;20031;-94
2022/01/25 09:43:55;;;;;;;16.77;9.15;;;;;;;0.75;69.06;102740.47;5082004;28;20067;-93
2022/01/25 09:46:57;;;;;;;17.67;9.35;;;;;;;0.84;68.65;102724.34;5057913;28;20036;-93
2022/01/25 09:49:34;;;;;;;18.45;9.43;;;;;;;0.44;68.65;102642.25;5087096;28;20032;-93
2022/01/25 09:52:10;;;;;;;17.70;9.43;;;;;;;0.64;69.01;102689.38;5086405;28;20032;-92
2022/01/25 09:54:56;;;;;;;19.53;10.20;;;;;;;0.76;68.18;102660.03;5053439;28;20055;-93
2022/01/25 09:57:35;;;;;;;17.85;9.80;;;;;;;0.99;68.15;102701.41;5057351;28;20669;-93
2022/01/25 10:00:19;;;;;;;18.40;10.35;;;;;;;0.37;68.75;102612.31;5074112;28;20028;-91
2022/01/25 10:03:38;;;;;;;16.92;9.98;;;;;;;0.87;68.92;102693.84;5057502;28;20032;-93
2022/01/25 10:06:20;;;;;;;17.13;9.60;;;;;;;0.85;68.75;102670.53;5050150;28;20041;-93
2022/01/25 10:09:21;;;;;;;18.80;10.43;;;;;;;0.87;68.61;102679.34;5089444;28;20028;-93
2022/01/25 10:12:24;;;;;;;17.83;9.95;;;;;;;0.91;68.33;102676.44;5081686;28;20060;-93
2022/01/25 10:15:01;;;;;;;18.00;9.27;;;;;;;1.09;68.25;102682.00;5054836;28;20052;-94
2022/01/25 10:17:31;;;;;;;17.23;10.07;;;;;;;0.87;68.28;102647.56;5065450;28;20033;-93
2022/01/25 10:20:04;;;;;;;17.90;10.02;;;;;;;0.77;68.68;102654.16;5060476;28;20025;-93
2022/01/25 10:23:30;;;;;;;20.20;10.52;;;;;;;0.83;69.13;102664.28;5073836;28;20025;-92
2022/01/25 10:26:05;;;;;;;18.23;9.25;;;;;;;0.83;68.90;102641.13;5083741;28;20035;-93
2022/01/25 10:28:31;;;;;;;21.95;10.02;;;;;;;0.82;69.06;102634.13;5057076;28;20024;-94
2022/01/25 10:34:28;;;;;;;17.85;10.00;;;;;;;0.86;68.59;102646.63;5082365;28;20093;-93
2022/01/25 10:37:00;;;;;;;17.80;10.13;;;;;;;0.89;67.63;102587.88;5056518;28;20036;-93
2022/01/25 10:39:36;;;;;;;19.58;10.35;;;;;;;0.94;68.20;102620.22;5056702;28;20511;-93
2022/01/25 10:45:24;;;;;;;15.50;9.32;;;;;;;0.92;68.22;102616.53;5082245;28;20085;-93
2022/01/25 10:47:55;;;;;;;18.05;9.77;;;;;;;0.84;68.32;102603.47;5076257;28;20056;-93
2022/01/25 10:50:26;;;;;;;18.98;10.27;;;;;;;1.03;68.04;102633.25;5054835;28;20039;-93
2022/01/25 10:53:17;;;;;;;17.92;9.93;;;;;;;0.77;68.05;102596.66;5086438;28;20032;-94
2022/01/25 10:56:22;;;;;;;17.25;9.70;;;;;;;0.91;68.39;102629.19;5074289;28;20035;-92
2022/01/25 10:59:01;;;;;;;19.65;9.55;;;;;;;0.83;68.39;102612.84;5087387;28;20491;-93
2022/01/25 11:01:50;;;;;;;18.65;9.18;;;;;;;0.96;68.81;102629.03;5076069;28;20031;-94
2022/01/25 11:04:18;;;;;;;15.80;9.38;;;;;;;0.89;68.70;102595.59;5102803;28;20027;-95
2022/01/25 11:07:00;;;;;;;18.33;9.82;;;;;;;0.83;68.32;102574.25;5067132;28;20029;-92
2022/01/25 11:10:04;;;;;;;15.95;9.25;;;;;;;1.01;68.18;102615.06;5057693;28;20082;-93
2022/01/25 11:12:36;;;;;;;16.02;9.63;;;;;;;0.55;68.52;102524.63;5060756;28;20060;-94
2022/01/25 11:15:03;;;;;;;16.00;9.32;;;;;;;0.62;68.03;102515.09;5081366;28;20021;-93
2022/01/25 11:17:32;;;;;;;18.13;9.80;;;;;;;0.44;68.11;102472.63;5080971;28;20074;-94
2022/01/25 11:20:03;;;;;;;15.63;9.27;;;;;;;1.04;68.33;102595.59;5076283;28;20028;-93
2022/01/25 11:22:31;;;;;;;18.00;9.52;;;;;;;0.62;68.79;102534.00;5064486;28;20048;-91
2022/01/25 11:25:04;;;;;;;16.77;9.43;;;;;;;1.00;68.10;102584.03;5055591;28;20040;-90
2022/01/25 11:27:32;;;;;;;15.80;9.25;;;;;;;0.80;68.08;102541.38;5039936;28;20028;-91
2022/01/25 11:30:18;;;;;;;16.83;9.50;;;;;;;1.04;68.17;102588.81;5073007;28;20545;-90
2022/01/25 11:32:53;;;;;;;18.95;9.75;;;;;;;0.57;68.40;102492.31;5050178;28;20120;-92
2022/01/25 11:35:23;;;;;;;15.23;8.48;;;;;;;0.40;68.40;102468.75;5063543;28;20036;-88
2022/01/25 11:37:50;;;;;;;17.60;9.77;;;;;;;0.38;68.13;102441.94;5072808;28;20496;-88
2022/01/25 11:40:26;;;;;;;17.45;9.32;;;;;;;1.09;68.44;102563.63;5094672;28;20579;-89
2022/01/25 11:43:10;;;;;;;17.05;9.32;;;;;;;0.90;67.83;102506.47;5067740;28;20566;-88
2022/01/25 11:48:51;;;;;;;15.20;8.65;;;;;;;1.01;68.29;102526.69;5094276;28;20105;-88
2022/01/25 11:51:19;;;;;;;16.02;8.65;;;;;;;1.04;68.07;102547.66;5082278;28;20035;-88
2022/01/25 11:53:49;;;;;;;15.70;9.18;;;;;;;1.01;68.61;102552.41;5058209;28;20074;-87
2022/01/25 11:56:17;;;;;;;14.57;8.43;;;;;;;0.95;68.42;102538.81;5072923;28;20028;-87
2022/01/25 11:58:53;;;;;;;15.63;8.90;;;;;;;0.82;68.47;102515.84;5055130;28;20036;-88
2022/01/25 12:01:20;;;;;;;16.00;9.15;;;;;;;0.65;68.25;102467.50;5068532;28;20098;-88
2022/01/25 12:04:00;;;;;;;16.83;9.10;;;;;;;1.06;68.12;102538.47;5088940;28;20506;-88
2022/01/25 12:06:34;;;;;;;15.38;8.60;;;;;;;1.14;68.56;102536.78;5063074;28;20032;-87
2022/01/25 12:12:06;;;;;;;16.52;8.73;;;;;;;1.09;68.27;102543.06;5079747;28;20098;-88
2022/01/25 12:14:55;;;;;;;14.68;8.73;;;;;;;1.14;67.95;102542.88;5070837;28;20530;-88
2022/01/25 12:17:28;;;;;;;16.88;9.00;;;;;;;1.12;68.30;102528.91;5052723;28;20501;-89
2022/01/25 12:20:03;;;;;;;16.15;8.73;;;;;;;0.63;68.39;102452.66;5051010;28;20112;-88
2022/01/25 12:22:46;;;;;;;14.80;8.18;;;;;;;0.89;68.05;102478.91;5072699;28;20040;-88
2022/01/25 12:25:26;;;;;;;16.40;9.07;;;;;;;1.04;68.11;102537.38;5070441;28;20036;-88
2022/01/25 12:28:08;;;;;;;15.98;9.05;;;;;;;0.99;68.08;102505.00;5070862;28;20024;-88
2022/01/25 12:30:41;;;;;;;14.48;8.38;;;;;;;1.14;68.24;102537.75;5055277;28;20016;-89
2022/01/25 12:33:29;;;;;;;16.13;8.93;;;;;;;1.18;67.56;102528.72;5054117;28;20040;-92
2022/01/25 12:36:04;;;;;;;15.07;8.82;;;;;;;0.96;67.94;102484.06;5071045;28;20028;-90
2022/01/25 12:38:49;;;;;;;15.43;8.52;;;;;;;1.32;67.30;102527.78;5067232;28;20127;-90
2022/01/25 12:41:31;;;;;;;15.77;8.50;;;;;;;1.18;67.75;102524.47;5034077;28;20048;-88
2022/01/25 12:44:05;;;;;;;16.13;8.77;;;;;;;0.90;67.95;102484.25;5034204;28;20064;-90
2022/01/25 12:46:41;;;;;;;16.58;8.55;;;;;;;1.00;67.85;102489.75;5050962;28;20029;-89
2022/01/25 12:49:20;;;;;;;19.70;9.43;;;;;;;1.43;67.03;102511.97;5051238;28;20025;-90
2022/01/25 12:52:21;;;;;;;16.70;9.07;;;;;;;1.41;67.02;102526.31;5037635;28;20024;-90
2022/01/25 12:58:18;;;;;;;20.30;9.98;;;;;;;1.36;66.17;102493.97;5051617;28;20039;-91
2022/01/25 13:00:56;;;;;;;18.95;9.50;;;;;;;1.51;66.28;102512.88;5050171;28;20511;-90
2022/01/25 13:03:46;;;;;;;21.38;10.10;;;;;;;1.32;67.14;102515.84;5050570;28;20488;-89
2022/01/25 13:06:28;;;;;;;19.38;9.68;;;;;;;1.21;67.58;102503.34;5050246;28;20037;-89
2022/01/25 13:12:12;;;;;;;19.15;9.88;;;;;;;0.99;67.80;102454.47;5070819;28;20082;-90
2022/01/25 13:17:15;;;;;;;21.65;10.52;;;;;;;1.25;67.24;102484.03;5050398;28;20028;-90
2022/01/25 13:20:01;;;;;;;24.00;10.00;;;;;;;1.32;67.23;102505.53;5034422;28;20067;-89
2022/01/25 13:22:35;;;;;;;20.70;9.75;;;;;;;1.12;67.87;102485.19;5033876;28;20529;-89
2022/01/25 13:25:34;;;;;;;22.50;10.48;;;;;;;1.27;67.49;102506.66;5054123;28;20056;-88
2022/01/25 13:28:55;;;;;;;21.00;9.93;;;;;;;1.23;67.74;102509.59;5054415;28;20033;-89
2022/01/25 13:31:23;;;;;;;19.95;9.80;;;;;;;1.16;67.33;102492.50;5063169;28;20024;-90
2022/01/25 13:34:01;;;;;;;20.27;9.85;;;;;;;1.16;67.94;102489.00;5054927;28;20388;-89
2022/01/25 13:36:37;;;;;;;20.00;10.57;;;;;;;0.94;67.68;102470.09;5044330;28;20446;-92
2022/01/25 13:39:03;;;;;;;20.73;10.25;;;;;;;0.90;67.91;102463.66;5037278;28;20107;-89
2022/01/25 13:41:40;;;;;;;25.02;10.63;;;;;;;1.02;68.29;102490.88;5072501;28;20035;-88
2022/01/25 13:46:40;;;;;;;22.13;10.75;;;;;;;0.77;67.84;102430.44;5076424;28;20045;-89
2022/01/25 13:49:25;;;;;;;22.23;10.40;;;;;;;1.22;68.04;102494.88;5058527;28;20056;-90
2022/01/25 13:52:04;;;;;;;20.83;10.60;;;;;;;1.34;67.82;102495.44;5077114;28;20384;-89
2022/01/25 13:54:29;;;;;;;19.55;9.68;;;;;;;1.29;67.54;102497.47;5086582;28;20105;-87
2022/01/25 13:57:09;;;;;;;20.20;9.85;;;;;;;0.91;68.33;102444.00;5072455;28;20495;-87
2022/01/25 13:59:36;;;;;;;21.55;10.48;;;;;;;1.19;67.84;102487.72;5057034;28;20036;-87
2022/01/25 14:02:02;;;;;;;20.95;10.50;;;;;;;1.03;67.50;102442.91;5071087;28;20028;-88
2022/01/25 14:04:28;;;;;;;22.23;10.23;;;;;;;1.05;67.92;102456.88;5084572;28;20040;-89
2022/01/25 14:06:57;;;;;;;23.40;10.40;;;;;;;0.90;68.26;102426.75;5091027;28;20094;-88
2022/01/25 14:09:32;;;;;;;21.23;10.45;;;;;;;1.13;68.00;102460.34;5085049;28;20548;-88
2022/01/25 14:26:27;;;;;;;19.98;9.82;;;;;;;1.20;67.83;102468.97;4998844;28;20129;-89
2022/01/25 14:29:06;;;;;;;20.42;9.88;;;;;;;1.29;67.37;102463.06;5056418;28;20089;-89
2022/01/25 14:31:31;;;;;;;20.17;9.82;;;;;;;1.13;67.16;102429.47;5069008;28;20036;-89
2022/01/25 14:34:05;;;;;;;21.33;10.20;;;;;;;1.12;67.17;102437.91;5062136;28;20388;-88
2022/01/25 14:36:31;;;;;;;17.15;9.10;;;;;;;1.26;67.51;102473.03;5076038;28;20090;-87
2022/01/25 14:38:58;;;;;;;20.30;10.27;;;;;;;0.83;66.99;102378.81;5072998;28;20028;-88
2022/01/25 14:41:31;;;;;;;17.63;9.02;;;;;;;1.28;67.10;102459.59;5072752;28;20042;-88
2022/01/25 14:44:08;;;;;;;20.15;9.95;;;;;;;1.25;67.37;102476.31;5072177;28;20062;-87
2022/01/25 14:46:36;;;;;;;19.80;9.82;;;;;;;1.45;67.38;102478.69;5055678;28;20091;-88
2022/01/25 14:49:06;;;;;;;18.35;9.75;;;;;;;1.37;67.10;102481.25;5082913;28;20059;-88
2022/01/25 14:51:58;;;;;;;20.10;9.68;;;;;;;1.92;65.74;102481.66;5072257;28;20031;-89